createdAt,value
2023-05-27T00:00:02.161Z,101749.59
2023-05-27T00:02:56.623Z,101764.48
2023-05-27T00:05:29.171Z,101760.61
2023-05-27T00:08:01.904Z,101758.26
2023-05-27T00:10:34.066Z,101744.37
2023-05-27T00:13:06.466Z,101755.59
2023-05-27T00:15:40.786Z,101738.28
2023-05-27T00:18:12.935Z,101759.11
2023-05-27T00:20:45.358Z,101746.02
2023-05-27T00:23:17.808Z,101761.36
2023-05-27T00:25:50.969Z,101762.10
2023-05-27T00:28:23.547Z,101764.90
2023-05-27T00:30:55.948Z,101760.73
2023-05-27T00:33:29.197Z,101763.64
2023-05-27T00:36:01.532Z,101764.73
2023-05-27T00:38:33.943Z,101760.24
2023-05-27T00:41:07.102Z,101755.79
2023-05-27T00:43:39.380Z,101758.48
2023-05-27T00:46:11.826Z,101762.02
2023-05-27T00:48:44.251Z,101765.14
2023-05-27T00:51:17.055Z,101758.44
2023-05-27T00:53:50.060Z,101764.59
2023-05-27T00:56:22.345Z,101768.84
2023-05-27T00:58:55.109Z,101770.05
2023-05-27T01:01:28.052Z,101773.02
2023-05-27T01:04:01.946Z,101753.14
2023-05-27T01:06:44.831Z,101769.24
2023-05-27T01:09:24.925Z,101772.82
2023-05-27T01:12:04.626Z,101779.02
2023-05-27T01:14:39.731Z,101781.68
2023-05-27T01:17:16.497Z,101778.71
2023-05-27T01:19:49.969Z,101778.00
2023-05-27T01:22:25.061Z,101781.84
2023-05-27T01:24:57.522Z,101777.69
2023-05-27T01:27:29.792Z,101778.95
2023-05-27T01:30:02.183Z,101778.48
2023-05-27T01:32:44.045Z,101774.80
2023-05-27T01:35:24.288Z,101776.11
2023-05-27T01:37:59.439Z,101776.08
2023-05-27T01:40:32.432Z,101776.09
2023-05-27T01:43:05.813Z,101767.30
2023-05-27T01:45:38.499Z,101766.46
2023-05-27T01:48:11.359Z,101770.17
2023-05-27T01:50:44.487Z,101771.32
2023-05-27T01:53:17.634Z,101765.77
2023-05-27T01:55:50.246Z,101764.02
2023-05-27T01:58:23.289Z,101768.96
2023-05-27T02:00:56.410Z,101763.00
2023-05-27T02:03:29.005Z,101762.89
2023-05-27T02:06:01.413Z,101745.30
2023-05-27T02:08:35.060Z,101761.16
2023-05-27T02:11:07.755Z,101758.61
2023-05-27T02:13:40.306Z,101762.25
2023-05-27T02:16:13.634Z,101758.23
2023-05-27T02:18:46.111Z,101761.31
2023-05-27T02:21:18.632Z,101737.71
2023-05-27T02:23:51.456Z,101761.28
2023-05-27T02:26:24.320Z,101760.55
2023-05-27T02:28:57.070Z,101763.48
2023-05-27T02:31:30.849Z,101761.10
2023-05-27T02:34:02.750Z,101760.52
2023-05-27T02:36:36.032Z,101763.07
2023-05-27T02:39:09.847Z,101768.11
2023-05-27T02:41:42.886Z,101768.82
2023-05-27T02:44:16.309Z,101768.75
2023-05-27T02:46:48.685Z,101763.21
2023-05-27T02:49:21.382Z,101774.11
2023-05-27T02:51:56.021Z,101771.11
2023-05-27T02:54:28.486Z,101770.95
2023-05-27T02:57:00.798Z,101771.33
2023-05-27T02:59:33.191Z,101772.03
2023-05-27T03:02:05.801Z,101776.17
2023-05-27T03:04:38.469Z,101781.17
2023-05-27T03:07:11.071Z,101780.17
2023-05-27T03:09:43.495Z,101782.23
2023-05-27T03:12:15.938Z,101783.79
2023-05-27T03:14:48.950Z,101765.30
2023-05-27T03:17:23.095Z,101783.27
2023-05-27T03:19:55.590Z,101784.30
2023-05-27T03:22:28.122Z,101783.98
2023-05-27T03:25:01.289Z,101783.63
2023-05-27T03:27:34.257Z,101785.14
2023-05-27T03:30:09.571Z,101786.55
2023-05-27T03:32:45.816Z,101788.05
2023-05-27T03:35:18.939Z,101789.72
2023-05-27T03:37:52.712Z,101785.86
2023-05-27T03:40:25.216Z,101788.14
2023-05-27T03:43:00.428Z,101789.88
2023-05-27T03:45:33.036Z,101791.34
2023-05-27T03:48:06.353Z,101792.52
2023-05-27T03:50:38.789Z,101797.48
2023-05-27T03:53:10.964Z,101794.54
2023-05-27T03:55:43.250Z,101801.37
2023-05-27T03:58:15.837Z,101806.27
2023-05-27T04:00:49.300Z,101797.33
2023-05-27T04:03:22.743Z,101811.11
2023-05-27T04:05:56.205Z,101812.84
2023-05-27T04:08:29.079Z,101810.77
2023-05-27T04:11:01.758Z,101814.35
2023-05-27T04:13:34.295Z,101819.77
2023-05-27T04:16:08.335Z,101820.05
2023-05-27T04:18:42.463Z,101820.31
2023-05-27T04:21:15.231Z,101811.80
2023-05-27T04:23:48.045Z,101828.63
2023-05-27T04:26:21.253Z,101833.63
2023-05-27T04:29:00.559Z,101835.77
2023-05-27T04:31:33.208Z,101810.98
2023-05-27T04:34:09.826Z,101837.88
2023-05-27T04:36:42.480Z,101835.26
2023-05-27T04:39:19.962Z,101820.90
2023-05-27T04:41:52.975Z,101822.23
2023-05-27T04:44:42.092Z,101839.89
2023-05-27T04:47:15.466Z,101841.48
2023-05-27T04:49:47.851Z,101837.97
2023-05-27T04:52:22.890Z,101836.20
2023-05-27T04:54:56.045Z,101824.56
2023-05-27T04:57:42.234Z,101845.58
2023-05-27T05:00:37.088Z,101838.79
2023-05-27T05:03:12.202Z,101842.39
2023-05-27T05:05:44.533Z,101834.23
2023-05-27T05:08:16.975Z,101841.37
2023-05-27T05:10:50.441Z,101838.85
2023-05-27T05:13:23.718Z,101839.52
2023-05-27T05:15:56.911Z,101840.26
2023-05-27T05:18:30.238Z,101839.16
2023-05-27T05:21:02.515Z,101829.06
2023-05-27T05:23:41.259Z,101837.83
2023-05-27T05:26:13.817Z,101838.11
2023-05-27T05:28:47.615Z,101836.45
2023-05-27T05:31:19.812Z,101832.53
2023-05-27T05:33:52.312Z,101835.16
2023-05-27T05:36:25.359Z,101838.83
2023-05-27T05:39:01.213Z,101826.66
2023-05-27T05:41:33.909Z,101819.45
2023-05-27T05:44:07.570Z,101832.20
2023-05-27T05:46:40.330Z,101833.20
2023-05-27T05:49:12.992Z,101840.54
2023-05-27T05:51:48.921Z,101842.73
2023-05-27T05:54:21.295Z,101839.67
2023-05-27T05:56:58.032Z,101844.02
2023-05-27T05:59:31.218Z,101847.57
2023-05-27T06:02:03.599Z,101848.34
2023-05-27T06:04:36.037Z,101847.79
2023-05-27T06:07:09.098Z,101852.34
2023-05-27T06:09:54.748Z,101839.25
2023-05-27T06:12:31.060Z,101849.45
2023-05-27T06:15:03.854Z,101848.68
2023-05-27T06:17:41.956Z,101840.91
2023-05-27T06:20:14.944Z,101857.96
2023-05-27T06:22:48.133Z,101858.70
2023-05-27T06:25:40.627Z,101862.45
2023-05-27T06:28:13.491Z,101860.45
2023-05-27T06:30:45.866Z,101862.44
2023-05-27T06:33:18.232Z,101867.48
2023-05-27T06:35:50.910Z,101862.89
2023-05-27T06:38:23.130Z,101846.52
2023-05-27T06:40:56.539Z,101858.13
2023-05-27T06:43:29.117Z,101858.30
2023-05-27T06:46:24.366Z,101863.98
2023-05-27T06:49:06.265Z,101864.32
2023-05-27T06:51:38.845Z,101866.83
2023-05-27T06:54:11.217Z,101868.63
2023-05-27T06:56:48.235Z,101867.84
2023-05-27T06:59:29.364Z,101871.02
2023-05-27T07:02:01.794Z,101867.34
2023-05-27T07:04:34.087Z,101868.23
2023-05-27T07:07:09.288Z,101867.84
2023-05-27T07:09:42.418Z,101863.95
2023-05-27T07:12:15.315Z,101859.65
2023-05-27T07:14:57.707Z,101859.85
2023-05-27T07:17:30.938Z,101856.86
2023-05-27T07:20:03.341Z,101861.29
2023-05-27T07:22:35.608Z,101860.07
2023-05-27T07:25:10.157Z,101856.29
2023-05-27T07:27:43.055Z,101853.13
2023-05-27T07:30:16.327Z,101855.27
2023-05-27T07:33:01.876Z,101857.02
2023-05-27T07:35:34.415Z,101854.79
2023-05-27T07:38:06.770Z,101852.60
2023-05-27T07:40:39.115Z,101851.05
2023-05-27T07:43:11.811Z,101845.48
2023-05-27T07:45:44.057Z,101843.72
2023-05-27T07:48:16.542Z,101845.82
2023-05-27T07:50:49.071Z,101848.38
2023-05-27T07:53:24.007Z,101847.09
2023-05-27T07:55:56.432Z,101848.77
2023-05-27T07:58:28.905Z,101843.57
2023-05-27T08:01:14.080Z,101841.71
2023-05-27T08:03:51.069Z,101847.45
2023-05-27T08:06:42.533Z,101846.51
2023-05-27T08:09:27.486Z,101807.20
2023-05-27T08:12:20.332Z,101807.40
2023-05-27T08:15:04.044Z,101831.75
2023-05-27T08:17:46.102Z,101814.23
2023-05-27T08:20:24.742Z,101832.36
2023-05-27T08:23:26.511Z,101826.55
2023-05-27T08:26:21.894Z,101824.68
2023-05-27T08:29:04.112Z,101819.98
2023-05-27T08:31:54.494Z,101815.84
2023-05-27T08:34:28.401Z,101811.98
2023-05-27T08:37:01.340Z,101815.83
2023-05-27T08:39:35.304Z,101812.65
2023-05-27T08:42:14.894Z,101813.13
2023-05-27T08:44:47.412Z,101798.95
2023-05-27T08:47:20.414Z,101803.25
2023-05-27T08:49:53.118Z,101793.74
2023-05-27T08:52:26.447Z,101794.14
2023-05-27T08:55:00.789Z,101785.21
2023-05-27T08:57:36.698Z,101794.87
2023-05-27T09:00:14.837Z,101797.87
2023-05-27T09:02:47.780Z,101792.52
2023-05-27T09:05:20.842Z,101796.07
2023-05-27T09:07:53.076Z,101795.18
2023-05-27T09:10:25.727Z,101790.95
2023-05-27T09:13:00.100Z,101788.92
2023-05-27T09:15:34.559Z,101791.25
2023-05-27T09:18:07.661Z,101785.84
2023-05-27T09:20:40.233Z,101789.30
2023-05-27T09:23:13.209Z,101789.52
2023-05-27T09:25:45.828Z,101795.86
2023-05-27T09:28:24.032Z,101793.07
2023-05-27T09:31:03.481Z,101794.18
2023-05-27T09:33:37.309Z,101787.98
2023-05-27T09:36:11.074Z,101789.45
2023-05-27T09:38:43.362Z,101783.96
2023-05-27T09:41:15.813Z,101783.17
2023-05-27T09:43:58.285Z,101780.61
2023-05-27T09:46:31.451Z,101783.52
2023-05-27T09:49:04.760Z,101784.43
2023-05-27T09:51:38.139Z,101787.74
2023-05-27T09:54:11.700Z,101792.43
2023-05-27T09:56:44.867Z,101786.44
2023-05-27T09:59:17.608Z,101782.39
2023-05-27T10:01:51.760Z,101766.23
2023-05-27T10:04:24.950Z,101765.24
2023-05-27T10:06:59.487Z,101775.81
2023-05-27T10:09:32.449Z,101774.60
2023-05-27T10:12:06.604Z,101777.36
2023-05-27T10:14:39.625Z,101763.37
2023-05-27T10:17:12.216Z,101775.01
2023-05-27T10:19:58.293Z,101781.91
2023-05-27T10:22:42.670Z,101777.52
2023-05-27T10:25:17.616Z,101769.41
2023-05-27T10:27:51.192Z,101777.17
2023-05-27T10:30:23.716Z,101777.80
2023-05-27T10:32:57.571Z,101771.17
2023-05-27T10:35:40.746Z,101770.66
2023-05-27T10:38:20.100Z,101769.23
2023-05-27T10:41:03.056Z,101774.51
2023-05-27T10:43:36.049Z,101774.41
2023-05-27T10:46:11.699Z,101758.23
2023-05-27T10:48:44.251Z,101773.19
2023-05-27T10:51:16.546Z,101774.05
2023-05-27T10:53:58.388Z,101756.79
2023-05-27T10:56:53.032Z,101767.26
2023-05-27T10:59:26.353Z,101765.05
2023-05-27T11:02:00.505Z,101754.45
2023-05-27T11:04:38.323Z,101750.17
2023-05-27T11:07:10.915Z,101748.09
2023-05-27T11:09:50.240Z,101748.38
2023-05-27T11:12:24.514Z,101747.00
2023-05-27T11:14:57.961Z,101743.86
2023-05-27T11:17:31.331Z,101733.29
2023-05-27T11:20:07.608Z,101733.97
2023-05-27T11:22:40.772Z,101733.38
2023-05-27T11:25:13.476Z,101735.48
2023-05-27T11:27:45.975Z,101735.76
2023-05-27T11:30:25.281Z,101737.75
2023-05-27T11:33:05.698Z,101734.44
2023-05-27T11:35:38.193Z,101733.48
2023-05-27T11:38:20.335Z,101732.73
2023-05-27T11:40:53.385Z,101729.46
2023-05-27T11:43:25.937Z,101709.05
2023-05-27T11:46:06.576Z,101725.41
2023-05-27T11:48:39.461Z,101718.55
2023-05-27T11:51:12.147Z,101721.55
2023-05-27T11:53:48.088Z,101720.73
2023-05-27T11:56:21.419Z,101716.67
2023-05-27T11:58:54.025Z,101714.12
2023-05-27T12:01:26.676Z,101708.52
2023-05-27T12:03:58.909Z,101709.27
2023-05-27T12:06:32.841Z,101703.92
2023-05-27T12:09:05.706Z,101703.02
2023-05-27T12:11:39.332Z,101703.46
2023-05-27T12:14:11.683Z,101703.84
2023-05-27T12:16:44.047Z,101696.10
2023-05-27T12:19:16.984Z,101687.24
2023-05-27T12:21:49.608Z,101688.00
2023-05-27T12:24:22.378Z,101680.23
2023-05-27T12:26:55.054Z,101674.65
2023-05-27T12:29:28.467Z,101676.80
2023-05-27T12:32:00.812Z,101676.37
2023-05-27T12:34:33.303Z,101667.39
2023-05-27T12:37:05.816Z,101675.11
2023-05-27T12:39:38.149Z,101675.42
2023-05-27T12:42:10.630Z,101668.27
2023-05-27T12:44:43.178Z,101669.70
2023-05-27T12:47:15.647Z,101669.02
2023-05-27T12:49:48.327Z,101658.98
2023-05-27T12:52:20.689Z,101654.10
2023-05-27T12:54:52.918Z,101651.30
2023-05-27T12:57:25.250Z,101640.41
2023-05-27T12:59:57.796Z,101651.73
2023-05-27T13:02:30.288Z,101649.30
2023-05-27T13:05:02.719Z,101641.16
2023-05-27T13:07:35.332Z,101650.09
2023-05-27T13:10:14.424Z,101647.51
2023-05-27T13:12:46.556Z,101644.47
2023-05-27T13:15:19.241Z,101648.80
2023-05-27T13:17:52.648Z,101640.10
2023-05-27T13:20:26.294Z,101637.27
2023-05-27T13:23:01.008Z,101631.05
2023-05-27T13:25:34.034Z,101636.71
2023-05-27T13:28:06.355Z,101631.61
2023-05-27T13:30:38.958Z,101621.86
2023-05-27T13:33:11.328Z,101618.92
2023-05-27T13:35:44.102Z,101617.45
2023-05-27T13:38:17.758Z,101614.02
2023-05-27T13:40:51.047Z,101607.73
2023-05-27T13:43:23.705Z,101617.89
2023-05-27T13:45:56.160Z,101618.11
2023-05-27T13:48:28.470Z,101612.98
2023-05-27T13:51:01.642Z,101611.87
2023-05-27T13:53:33.933Z,101596.85
2023-05-27T13:56:06.579Z,101611.54
2023-05-27T13:58:38.925Z,101603.90
2023-05-27T14:01:11.975Z,101601.39
2023-05-27T14:03:44.653Z,101597.67
2023-05-27T14:06:17.489Z,101600.08
2023-05-27T14:08:49.696Z,101600.69
2023-05-27T14:11:22.857Z,101591.85
2023-05-27T14:13:56.644Z,101579.96
2023-05-27T14:16:29.178Z,101587.50
2023-05-27T14:19:01.434Z,101586.70
2023-05-27T14:21:34.411Z,101584.39
2023-05-27T14:24:07.123Z,101566.57
2023-05-27T14:26:39.352Z,101577.23
2023-05-27T14:29:11.755Z,101578.42
2023-05-27T14:31:44.495Z,101575.66
2023-05-27T14:34:16.851Z,101577.38
2023-05-27T14:36:49.803Z,101574.39
2023-05-27T14:39:22.416Z,101563.70
2023-05-27T14:41:56.562Z,101561.18
2023-05-27T14:44:28.996Z,101548.41
2023-05-27T14:47:01.452Z,101553.00
2023-05-27T14:49:33.939Z,101564.05
2023-05-27T14:52:06.480Z,101561.11
2023-05-27T14:54:38.699Z,101552.95
2023-05-27T14:57:10.971Z,101551.84
2023-05-27T14:59:43.169Z,101535.80
2023-05-27T15:02:16.085Z,101540.83
2023-05-27T15:04:49.511Z,101544.84
2023-05-27T15:07:23.702Z,101543.97
2023-05-27T15:09:56.104Z,101543.94
2023-05-27T15:12:30.076Z,101527.81
2023-05-27T15:15:02.555Z,101540.89
2023-05-27T15:17:36.525Z,101538.62
2023-05-27T15:20:11.962Z,101530.25
2023-05-27T15:22:44.515Z,101524.41
2023-05-27T15:25:16.972Z,101533.63
2023-05-27T15:27:49.334Z,101532.23
2023-05-27T15:30:21.641Z,101529.07
2023-05-27T15:32:54.158Z,101529.92
2023-05-27T15:35:26.742Z,101528.25
2023-05-27T15:37:59.070Z,101526.20
2023-05-27T15:40:31.355Z,101522.32
2023-05-27T15:43:03.953Z,101521.40
2023-05-27T15:45:36.855Z,101509.89
2023-05-27T15:48:09.883Z,101519.05
2023-05-27T15:50:42.900Z,101520.16
2023-05-27T15:53:15.129Z,101513.35
2023-05-27T15:55:47.779Z,101511.05
2023-05-27T15:58:20.410Z,101513.08
2023-05-27T16:00:52.635Z,101506.23
2023-05-27T16:03:25.317Z,101503.74
2023-05-27T16:05:57.651Z,101504.33
2023-05-27T16:08:29.969Z,101506.11
2023-05-27T16:11:02.402Z,101494.70
2023-05-27T16:13:36.512Z,101491.23
2023-05-27T16:16:09.173Z,101492.65
2023-05-27T16:18:41.681Z,101490.74
2023-05-27T16:21:14.331Z,101486.36
2023-05-27T16:23:55.983Z,101483.92
2023-05-27T16:26:35.733Z,101477.42
2023-05-27T16:29:08.261Z,101459.84
2023-05-27T16:31:40.763Z,101469.77
2023-05-27T16:34:13.447Z,101468.33
2023-05-27T16:36:46.493Z,101467.33
2023-05-27T16:39:18.596Z,101466.34
2023-05-27T16:41:52.439Z,101464.33
2023-05-27T16:44:25.119Z,101462.73
2023-05-27T16:46:57.253Z,101464.44
2023-05-27T16:49:30.001Z,101462.11
2023-05-27T16:52:02.493Z,101458.05
2023-05-27T16:54:34.896Z,101452.80
2023-05-27T16:57:08.166Z,101457.70
2023-05-27T16:59:40.654Z,101460.27
2023-05-27T17:02:13.934Z,101458.22
2023-05-27T17:04:46.442Z,101455.31
2023-05-27T17:07:19.274Z,101453.19
2023-05-27T17:09:52.929Z,101456.83
2023-05-27T17:12:25.151Z,101452.45
2023-05-27T17:14:57.811Z,101452.66
2023-05-27T17:17:30.373Z,101443.03
2023-05-27T17:20:07.868Z,101450.71
2023-05-27T17:22:40.900Z,101445.47
2023-05-27T17:25:13.201Z,101438.70
2023-05-27T17:27:45.886Z,101430.05
2023-05-27T17:30:18.620Z,101444.60
2023-05-27T17:32:51.482Z,101437.98
2023-05-27T17:35:24.176Z,101439.36
2023-05-27T17:37:56.449Z,101440.68
2023-05-27T17:40:28.844Z,101442.94
2023-05-27T17:43:01.429Z,101438.86
2023-05-27T17:45:33.854Z,101440.41
2023-05-27T17:48:10.227Z,101436.20
2023-05-27T17:50:43.066Z,101435.58
2023-05-27T17:53:15.814Z,101436.90
2023-05-27T17:55:48.361Z,101435.38
2023-05-27T17:58:21.176Z,101435.72
2023-05-27T18:00:53.992Z,101432.04
2023-05-27T18:03:26.747Z,101434.15
2023-05-27T18:05:59.568Z,101434.60
2023-05-27T18:08:31.755Z,101434.21
2023-05-27T18:11:04.605Z,101434.80
2023-05-27T18:13:38.101Z,101433.14
2023-05-27T18:16:11.673Z,101433.89
2023-05-27T18:18:44.371Z,101429.70
2023-05-27T18:21:16.666Z,101432.98
2023-05-27T18:23:49.711Z,101433.36
2023-05-27T18:26:22.155Z,101432.18
2023-05-27T18:28:54.952Z,101434.75
2023-05-27T18:31:27.181Z,101428.81
2023-05-27T18:33:59.570Z,101428.23
2023-05-27T18:36:32.568Z,101431.66
2023-05-27T18:39:05.156Z,101430.85
2023-05-27T18:41:37.453Z,101433.02
2023-05-27T18:44:09.793Z,101435.08
2023-05-27T18:46:42.949Z,101435.27
2023-05-27T18:49:15.537Z,101437.41
2023-05-27T18:51:48.207Z,101442.42
2023-05-27T18:54:21.083Z,101437.48
2023-05-27T18:56:53.418Z,101439.89
2023-05-27T18:59:25.872Z,101440.09
2023-05-27T19:01:58.875Z,101440.21
2023-05-27T19:04:31.597Z,101438.80
2023-05-27T19:07:04.370Z,101438.50
2023-05-27T19:09:37.148Z,101439.81
2023-05-27T19:12:10.378Z,101440.71
2023-05-27T19:14:43.992Z,101436.69
2023-05-27T19:17:16.597Z,101435.88
2023-05-27T19:19:51.211Z,101440.71
2023-05-27T19:22:23.994Z,101440.16
2023-05-27T19:24:56.296Z,101443.45
2023-05-27T19:27:29.301Z,101446.19
2023-05-27T19:30:01.796Z,101437.08
2023-05-27T19:32:34.265Z,101448.92
2023-05-27T19:35:08.148Z,101447.06
2023-05-27T19:37:40.864Z,101448.49
2023-05-27T19:40:13.690Z,101443.90
2023-05-27T19:42:46.127Z,101445.27
2023-05-27T19:45:18.655Z,101437.90
2023-05-27T19:47:52.403Z,101446.47
2023-05-27T19:50:24.861Z,101443.07
2023-05-27T19:52:57.321Z,101443.68
2023-05-27T19:55:29.728Z,101441.58
2023-05-27T19:58:02.009Z,101440.90
2023-05-27T20:00:34.210Z,101439.18
2023-05-27T20:03:06.852Z,101441.80
2023-05-27T20:05:39.529Z,101445.70
2023-05-27T20:08:11.962Z,101422.77
2023-05-27T20:10:44.527Z,101445.00
2023-05-27T20:13:16.855Z,101442.65
2023-05-27T20:15:49.047Z,101437.78
2023-05-27T20:18:22.061Z,101437.19
2023-05-27T20:20:54.782Z,101436.66
2023-05-27T20:23:27.564Z,101434.36
2023-05-27T20:26:00.353Z,101435.93
2023-05-27T20:28:32.951Z,101423.38
2023-05-27T20:31:05.535Z,101429.30
2023-05-27T20:33:38.004Z,101437.74
2023-05-27T20:36:10.824Z,101435.55
2023-05-27T20:38:43.427Z,101436.39
2023-05-27T20:41:16.342Z,101437.46
2023-05-27T20:43:48.761Z,101438.30
2023-05-27T20:46:26.613Z,101439.09
2023-05-27T20:48:59.519Z,101434.00
2023-05-27T20:51:31.839Z,101433.25
2023-05-27T20:54:03.918Z,101422.98
2023-05-27T20:56:36.200Z,101430.77
2023-05-27T20:59:08.536Z,101429.10
2023-05-27T21:01:40.926Z,101434.61
2023-05-27T21:04:13.375Z,101430.80
2023-05-27T21:06:45.781Z,101432.84
2023-05-27T21:09:18.290Z,101434.16
2023-05-27T21:11:50.626Z,101433.67
2023-05-27T21:14:23.090Z,101435.16
2023-05-27T21:16:55.412Z,101438.10
2023-05-27T21:19:28.062Z,101438.46
2023-05-27T21:22:00.683Z,101438.75
2023-05-27T21:24:32.768Z,101436.55
2023-05-27T21:27:05.460Z,101440.21
2023-05-27T21:29:37.804Z,101439.57
2023-05-27T21:32:10.439Z,101436.73
2023-05-27T21:34:42.853Z,101440.52
2023-05-27T21:37:15.229Z,101439.42
2023-05-27T21:39:47.741Z,101436.83
2023-05-27T21:42:22.879Z,101433.50
2023-05-27T21:44:55.173Z,101433.95
2023-05-27T21:47:27.607Z,101433.84
2023-05-27T21:50:00.677Z,101426.66
2023-05-27T21:52:33.059Z,101427.36
2023-05-27T21:55:05.749Z,101420.50
2023-05-27T21:57:38.217Z,101413.86
2023-05-27T22:00:17.067Z,101413.40
2023-05-27T22:02:49.661Z,101409.94
2023-05-27T22:05:22.629Z,101417.07
2023-05-27T22:07:55.527Z,101415.35
2023-05-27T22:10:28.230Z,101412.26
2023-05-27T22:13:00.467Z,101408.82
2023-05-27T22:15:32.800Z,101397.30
2023-05-27T22:18:05.817Z,101395.65
2023-05-27T22:20:38.476Z,101411.13
2023-05-27T22:23:12.164Z,101405.88
2023-05-27T22:25:44.697Z,101409.84
2023-05-27T22:28:17.609Z,101407.89
2023-05-27T22:30:49.822Z,101407.05
2023-05-27T22:33:22.088Z,101409.80
2023-05-27T22:35:54.808Z,101408.85
2023-05-27T22:38:27.470Z,101408.23
2023-05-27T22:41:00.033Z,101410.33
2023-05-27T22:43:32.521Z,101406.42
2023-05-27T22:46:05.317Z,101408.83
2023-05-27T22:48:37.402Z,101408.49
2023-05-27T22:51:09.947Z,101407.80
2023-05-27T22:53:44.140Z,101404.55
2023-05-27T22:56:18.538Z,101400.16
2023-05-27T22:58:51.274Z,101398.03
2023-05-27T23:01:23.807Z,101392.30
2023-05-27T23:03:56.032Z,101392.69
2023-05-27T23:06:28.546Z,101393.19
2023-05-27T23:09:01.014Z,101391.06
2023-05-27T23:11:33.644Z,101381.23
2023-05-27T23:14:06.080Z,101383.92
2023-05-27T23:16:39.076Z,101383.26
2023-05-27T23:19:11.595Z,101367.96
2023-05-27T23:21:44.164Z,101384.05
2023-05-27T23:24:16.497Z,101370.20
2023-05-27T23:26:48.773Z,101382.29
2023-05-27T23:29:21.253Z,101379.52
2023-05-27T23:31:53.564Z,101379.16
2023-05-27T23:34:25.940Z,101359.52
2023-05-27T23:36:58.635Z,101377.33
2023-05-27T23:39:31.161Z,101374.44
2023-05-27T23:42:03.633Z,101358.98
2023-05-27T23:44:36.086Z,101373.54
2023-05-27T23:47:10.337Z,101352.89
2023-05-27T23:49:42.592Z,101367.05
2023-05-27T23:52:15.630Z,101365.73
2023-05-27T23:54:48.179Z,101357.46
2023-05-27T23:57:20.477Z,101358.00
